Terminal Aerodrome Forecast
Issued by NWS Twin Cities, MN

Home | Current Version | Previous Version | Text Only | Print | Product List | Glossary Off
Versions: 1 2 3 4 5 6 7 8 9 10 11 12 13 14 15 16 17 18 19 20 21 22 23 24

000
FTUS43 KMPX 280251 AAA
TAFMSP
TAF AMD
KMSP 280251Z 2803/2906 17007KT P6SM BKN250
     FM280600 16006KT P6SM VCSH BKN040
     FM280900 14007KT 6SM -SHRA BR BKN030
     FM281100 12008KT 5SM -RA BR SCT008 BKN015
     FM281400 12010KT 6SM -SHRA BKN008
     FM281800 10009KT P6SM BKN015
     FM282000 09010KT P6SM BKN040=

USA.gov is the U.S. government's official web portal to all federal, state and local government web resources and services.